sensor_id;sensor_type;location;lat;lon;timestamp;temperature;humidity
53599;DHT22;39485;45.702;11.364;2023-04-03T00:01:28;9.20;99.90
53599;DHT22;39485;45.702;11.364;2023-04-03T00:03:54;9.20;99.90
53599;DHT22;39485;45.702;11.364;2023-04-03T00:06:20;9.20;99.90
53599;DHT22;39485;45.702;11.364;2023-04-03T00:08:45;9.20;99.90
53599;DHT22;39485;45.702;11.364;2023-04-03T00:11:11;9.10;99.90
53599;DHT22;39485;45.702;11.364;2023-04-03T00:13:37;9.10;99.90
53599;DHT22;39485;45.702;11.364;2023-04-03T00:16:04;9.10;99.90
53599;DHT22;39485;45.702;11.364;2023-04-03T00:18:30;9.10;99.90
53599;DHT22;39485;45.702;11.364;2023-04-03T00:20:56;9.10;99.90
53599;DHT22;39485;45.702;11.364;2023-04-03T00:23:22;9.10;99.90
53599;DHT22;39485;45.702;11.364;2023-04-03T00:25:49;9.00;99.90
53599;DHT22;39485;45.702;11.364;2023-04-03T00:28:15;9.00;99.90
53599;DHT22;39485;45.702;11.364;2023-04-03T00:30:41;9.00;99.90
53599;DHT22;39485;45.702;11.364;2023-04-03T00:33:07;8.90;99.90
53599;DHT22;39485;45.702;11.364;2023-04-03T00:35:34;8.90;99.90
53599;DHT22;39485;45.702;11.364;2023-04-03T00:37:59;8.90;99.90
53599;DHT22;39485;45.702;11.364;2023-04-03T00:40:27;8.90;99.90
53599;DHT22;39485;45.702;11.364;2023-04-03T00:42:58;8.90;99.90
53599;DHT22;39485;45.702;11.364;2023-04-03T00:47:56;8.90;99.90
53599;DHT22;39485;45.702;11.364;2023-04-03T00:50:25;8.90;99.90
53599;DHT22;39485;45.702;11.364;2023-04-03T00:52:51;8.90;99.90
53599;DHT22;39485;45.702;11.364;2023-04-03T00:55:17;8.90;99.90
53599;DHT22;39485;45.702;11.364;2023-04-03T00:57:43;8.90;99.90
53599;DHT22;39485;45.702;11.364;2023-04-03T01:00:13;8.80;99.90
53599;DHT22;39485;45.702;11.364;2023-04-03T01:02:40;8.80;99.90
53599;DHT22;39485;45.702;11.364;2023-04-03T01:05:06;8.70;99.90
53599;DHT22;39485;45.702;11.364;2023-04-03T01:07:32;8.70;99.90
53599;DHT22;39485;45.702;11.364;2023-04-03T01:10:02;8.70;99.90
53599;DHT22;39485;45.702;11.364;2023-04-03T01:12:48;8.70;99.90
53599;DHT22;39485;45.702;11.364;2023-04-03T01:15:21;8.70;99.90
53599;DHT22;39485;45.702;11.364;2023-04-03T01:20:48;8.70;99.90
53599;DHT22;39485;45.702;11.364;2023-04-03T01:25:59;8.70;99.90
53599;DHT22;39485;45.702;11.364;2023-04-03T01:31:05;8.70;99.90
53599;DHT22;39485;45.702;11.364;2023-04-03T01:33:34;8.70;99.90
53599;DHT22;39485;45.702;11.364;2023-04-03T01:36:00;8.70;99.90
53599;DHT22;39485;45.702;11.364;2023-04-03T01:38:26;8.70;99.90
53599;DHT22;39485;45.702;11.364;2023-04-03T01:40:52;8.70;99.90
53599;DHT22;39485;45.702;11.364;2023-04-03T01:43:17;8.70;99.90
53599;DHT22;39485;45.702;11.364;2023-04-03T01:45:43;8.70;99.90
53599;DHT22;39485;45.702;11.364;2023-04-03T01:48:09;8.70;99.90
53599;DHT22;39485;45.702;11.364;2023-04-03T01:50:35;8.70;99.90
53599;DHT22;39485;45.702;11.364;2023-04-03T01:53:00;8.70;99.90
53599;DHT22;39485;45.702;11.364;2023-04-03T01:55:26;8.70;99.90
53599;DHT22;39485;45.702;11.364;2023-04-03T02:00:27;8.60;99.90
53599;DHT22;39485;45.702;11.364;2023-04-03T02:02:53;8.60;99.90
53599;DHT22;39485;45.702;11.364;2023-04-03T02:05:18;8.60;99.90
53599;DHT22;39485;45.702;11.364;2023-04-03T02:07:44;8.60;99.90
53599;DHT22;39485;45.702;11.364;2023-04-03T02:10:10;8.50;99.90
53599;DHT22;39485;45.702;11.364;2023-04-03T02:12:36;8.50;99.90
53599;DHT22;39485;45.702;11.364;2023-04-03T02:15:02;8.50;99.90
53599;DHT22;39485;45.702;11.364;2023-04-03T02:17:28;8.50;99.90
53599;DHT22;39485;45.702;11.364;2023-04-03T02:19:53;8.40;99.90
53599;DHT22;39485;45.702;11.364;2023-04-03T02:22:19;8.40;99.90
53599;DHT22;39485;45.702;11.364;2023-04-03T02:24:45;8.40;99.90
53599;DHT22;39485;45.702;11.364;2023-04-03T02:27:11;8.40;99.90
53599;DHT22;39485;45.702;11.364;2023-04-03T02:29:37;8.40;99.90
53599;DHT22;39485;45.702;11.364;2023-04-03T02:32:02;8.40;99.90
53599;DHT22;39485;45.702;11.364;2023-04-03T02:34:28;8.40;99.90
53599;DHT22;39485;45.702;11.364;2023-04-03T02:36:54;8.40;99.90
53599;DHT22;39485;45.702;11.364;2023-04-03T02:39:20;8.40;99.90
53599;DHT22;39485;45.702;11.364;2023-04-03T02:41:45;8.40;99.90
53599;DHT22;39485;45.702;11.364;2023-04-03T02:44:11;8.40;99.90
53599;DHT22;39485;45.702;11.364;2023-04-03T02:46:37;8.40;99.90
53599;DHT22;39485;45.702;11.364;2023-04-03T02:49:04;8.30;99.90
53599;DHT22;39485;45.702;11.364;2023-04-03T02:51:30;8.30;99.90
53599;DHT22;39485;45.702;11.364;2023-04-03T02:53:56;8.30;99.90
53599;DHT22;39485;45.702;11.364;2023-04-03T02:56:21;8.30;99.90
53599;DHT22;39485;45.702;11.364;2023-04-03T02:58:47;8.30;99.90
53599;DHT22;39485;45.702;11.364;2023-04-03T03:01:13;8.30;99.90
53599;DHT22;39485;45.702;11.364;2023-04-03T03:03:39;8.30;99.90
53599;DHT22;39485;45.702;11.364;2023-04-03T03:08:33;8.30;99.90
53599;DHT22;39485;45.702;11.364;2023-04-03T03:10:59;8.20;99.90
53599;DHT22;39485;45.702;11.364;2023-04-03T03:13:24;8.10;99.90
53599;DHT22;39485;45.702;11.364;2023-04-03T03:15:51;8.00;99.90
53599;DHT22;39485;45.702;11.364;2023-04-03T03:18:16;8.00;99.90
53599;DHT22;39485;45.702;11.364;2023-04-03T03:20:42;8.00;99.90
53599;DHT22;39485;45.702;11.364;2023-04-03T03:23:08;7.90;99.90
53599;DHT22;39485;45.702;11.364;2023-04-03T03:25:37;7.90;99.90
53599;DHT22;39485;45.702;11.364;2023-04-03T03:28:03;7.90;99.90
53599;DHT22;39485;45.702;11.364;2023-04-03T03:30:28;7.90;99.90
53599;DHT22;39485;45.702;11.364;2023-04-03T03:32:54;7.90;99.90
53599;DHT22;39485;45.702;11.364;2023-04-03T03:35:20;7.90;99.90
53599;DHT22;39485;45.702;11.364;2023-04-03T03:37:45;7.90;99.90
53599;DHT22;39485;45.702;11.364;2023-04-03T03:40:11;7.90;99.90
53599;DHT22;39485;45.702;11.364;2023-04-03T03:42:38;7.90;99.90
53599;DHT22;39485;45.702;11.364;2023-04-03T03:45:05;7.90;99.90
53599;DHT22;39485;45.702;11.364;2023-04-03T03:47:31;7.90;99.90
53599;DHT22;39485;45.702;11.364;2023-04-03T03:49:56;7.80;99.90
53599;DHT22;39485;45.702;11.364;2023-04-03T03:52:22;7.80;99.90
53599;DHT22;39485;45.702;11.364;2023-04-03T03:54:48;7.80;99.90
53599;DHT22;39485;45.702;11.364;2023-04-03T03:57:13;7.80;99.90
53599;DHT22;39485;45.702;11.364;2023-04-03T03:59:40;7.80;99.90
53599;DHT22;39485;45.702;11.364;2023-04-03T04:02:07;7.80;99.90
53599;DHT22;39485;45.702;11.364;2023-04-03T04:04:33;7.90;99.90
53599;DHT22;39485;45.702;11.364;2023-04-03T04:06:59;7.90;99.90
53599;DHT22;39485;45.702;11.364;2023-04-03T04:09:26;7.80;99.90
53599;DHT22;39485;45.702;11.364;2023-04-03T04:11:52;7.80;99.90
53599;DHT22;39485;45.702;11.364;2023-04-03T04:14:18;7.80;99.90
53599;DHT22;39485;45.702;11.364;2023-04-03T04:16:46;7.80;99.90
53599;DHT22;39485;45.702;11.364;2023-04-03T04:19:12;7.80;99.90
53599;DHT22;39485;45.702;11.364;2023-04-03T04:21:38;7.80;99.90
53599;DHT22;39485;45.702;11.364;2023-04-03T04:24:05;7.80;99.90
53599;DHT22;39485;45.702;11.364;2023-04-03T04:26:31;7.80;99.90
53599;DHT22;39485;45.702;11.364;2023-04-03T04:28:57;7.70;99.90
53599;DHT22;39485;45.702;11.364;2023-04-03T04:31:22;7.70;99.90
53599;DHT22;39485;45.702;11.364;2023-04-03T04:33:48;7.70;99.90
53599;DHT22;39485;45.702;11.364;2023-04-03T04:36:14;7.70;99.90
53599;DHT22;39485;45.702;11.364;2023-04-03T04:38:40;7.70;99.90
53599;DHT22;39485;45.702;11.364;2023-04-03T04:41:06;7.70;99.90
53599;DHT22;39485;45.702;11.364;2023-04-03T04:43:33;7.70;99.90
53599;DHT22;39485;45.702;11.364;2023-04-03T04:46:03;7.60;99.90
53599;DHT22;39485;45.702;11.364;2023-04-03T04:48:30;7.60;99.90
53599;DHT22;39485;45.702;11.364;2023-04-03T04:50:55;7.60;99.90
53599;DHT22;39485;45.702;11.364;2023-04-03T04:53:21;7.60;99.90
53599;DHT22;39485;45.702;11.364;2023-04-03T04:55:47;7.60;99.90
53599;DHT22;39485;45.702;11.364;2023-04-03T04:58:13;7.60;99.90
53599;DHT22;39485;45.702;11.364;2023-04-03T05:00:39;7.60;99.90
53599;DHT22;39485;45.702;11.364;2023-04-03T05:03:04;7.50;99.90
53599;DHT22;39485;45.702;11.364;2023-04-03T05:05:30;7.60;99.90
53599;DHT22;39485;45.702;11.364;2023-04-03T05:07:56;7.50;99.90
53599;DHT22;39485;45.702;11.364;2023-04-03T05:10:22;7.50;99.90
53599;DHT22;39485;45.702;11.364;2023-04-03T05:12:47;7.50;99.90
53599;DHT22;39485;45.702;11.364;2023-04-03T05:15:13;7.50;99.90
53599;DHT22;39485;45.702;11.364;2023-04-03T05:17:38;7.50;99.90
53599;DHT22;39485;45.702;11.364;2023-04-03T05:20:05;7.60;99.90
53599;DHT22;39485;45.702;11.364;2023-04-03T05:22:31;7.60;99.90
53599;DHT22;39485;45.702;11.364;2023-04-03T05:24:57;7.60;99.90
53599;DHT22;39485;45.702;11.364;2023-04-03T05:27:23;7.60;99.90
53599;DHT22;39485;45.702;11.364;2023-04-03T05:29:50;7.60;99.90
53599;DHT22;39485;45.702;11.364;2023-04-03T05:32:16;7.70;99.90
53599;DHT22;39485;45.702;11.364;2023-04-03T05:34:42;7.70;99.90
53599;DHT22;39485;45.702;11.364;2023-04-03T05:37:07;7.70;99.90
53599;DHT22;39485;45.702;11.364;2023-04-03T05:39:33;7.70;99.90
53599;DHT22;39485;45.702;11.364;2023-04-03T05:41:59;7.80;99.90
53599;DHT22;39485;45.702;11.364;2023-04-03T05:44:25;7.80;99.90
53599;DHT22;39485;45.702;11.364;2023-04-03T05:46:50;7.90;99.90
53599;DHT22;39485;45.702;11.364;2023-04-03T05:49:16;7.90;99.90
53599;DHT22;39485;45.702;11.364;2023-04-03T05:51:43;8.00;99.90
53599;DHT22;39485;45.702;11.364;2023-04-03T05:54:17;8.10;99.90
53599;DHT22;39485;45.702;11.364;2023-04-03T05:56:44;8.10;99.90
53599;DHT22;39485;45.702;11.364;2023-04-03T05:59:09;8.20;99.90
53599;DHT22;39485;45.702;11.364;2023-04-03T06:01:35;8.30;99.90
53599;DHT22;39485;45.702;11.364;2023-04-03T06:04:01;8.30;99.90
53599;DHT22;39485;45.702;11.364;2023-04-03T06:06:46;8.40;99.90
53599;DHT22;39485;45.702;11.364;2023-04-03T06:09:13;8.40;99.90
53599;DHT22;39485;45.702;11.364;2023-04-03T06:11:38;8.50;99.90
53599;DHT22;39485;45.702;11.364;2023-04-03T06:14:04;8.60;99.90
53599;DHT22;39485;45.702;11.364;2023-04-03T06:16:30;8.60;99.90
53599;DHT22;39485;45.702;11.364;2023-04-03T06:18:55;8.70;99.90
53599;DHT22;39485;45.702;11.364;2023-04-03T06:21:21;8.70;99.90
53599;DHT22;39485;45.702;11.364;2023-04-03T06:23:47;8.80;99.90
53599;DHT22;39485;45.702;11.364;2023-04-03T06:26:13;8.90;99.90
53599;DHT22;39485;45.702;11.364;2023-04-03T06:28:38;8.90;99.90
53599;DHT22;39485;45.702;11.364;2023-04-03T06:31:04;9.00;99.90
53599;DHT22;39485;45.702;11.364;2023-04-03T06:33:30;9.10;99.90
53599;DHT22;39485;45.702;11.364;2023-04-03T06:35:57;9.20;99.90
53599;DHT22;39485;45.702;11.364;2023-04-03T06:38:23;9.20;99.90
53599;DHT22;39485;45.702;11.364;2023-04-03T06:40:49;9.30;99.90
53599;DHT22;39485;45.702;11.364;2023-04-03T06:43:15;9.40;99.90
53599;DHT22;39485;45.702;11.364;2023-04-03T06:45:40;9.50;99.90
53599;DHT22;39485;45.702;11.364;2023-04-03T06:48:06;9.60;99.90
53599;DHT22;39485;45.702;11.364;2023-04-03T06:50:32;9.60;99.90
53599;DHT22;39485;45.702;11.364;2023-04-03T06:52:57;9.70;99.90
53599;DHT22;39485;45.702;11.364;2023-04-03T06:55:23;9.70;99.90
53599;DHT22;39485;45.702;11.364;2023-04-03T06:57:49;9.70;99.90
53599;DHT22;39485;45.702;11.364;2023-04-03T07:00:15;9.70;99.90
53599;DHT22;39485;45.702;11.364;2023-04-03T07:02:41;9.80;99.90
53599;DHT22;39485;45.702;11.364;2023-04-03T07:05:07;9.90;99.90
53599;DHT22;39485;45.702;11.364;2023-04-03T07:07:34;9.90;99.90
53599;DHT22;39485;45.702;11.364;2023-04-03T07:10:00;10.00;99.90
53599;DHT22;39485;45.702;11.364;2023-04-03T07:12:26;10.10;99.90
53599;DHT22;39485;45.702;11.364;2023-04-03T07:14:51;10.10;99.90
53599;DHT22;39485;45.702;11.364;2023-04-03T07:17:17;10.20;99.90
53599;DHT22;39485;45.702;11.364;2023-04-03T07:19:43;10.20;99.90
53599;DHT22;39485;45.702;11.364;2023-04-03T07:22:08;10.40;99.90
53599;DHT22;39485;45.702;11.364;2023-04-03T07:24:36;10.50;99.90
53599;DHT22;39485;45.702;11.364;2023-04-03T07:27:02;10.60;99.90
53599;DHT22;39485;45.702;11.364;2023-04-03T07:29:29;10.70;99.90
53599;DHT22;39485;45.702;11.364;2023-04-03T07:31:55;10.80;99.90
53599;DHT22;39485;45.702;11.364;2023-04-03T07:34:21;10.90;99.90
53599;DHT22;39485;45.702;11.364;2023-04-03T07:36:47;11.00;99.90
53599;DHT22;39485;45.702;11.364;2023-04-03T07:39:13;11.00;99.90
53599;DHT22;39485;45.702;11.364;2023-04-03T07:41:39;11.10;99.90
53599;DHT22;39485;45.702;11.364;2023-04-03T07:44:05;11.20;99.90
53599;DHT22;39485;45.702;11.364;2023-04-03T07:46:31;11.20;99.90
53599;DHT22;39485;45.702;11.364;2023-04-03T07:48:57;11.30;99.90
53599;DHT22;39485;45.702;11.364;2023-04-03T07:51:23;11.40;99.90
53599;DHT22;39485;45.702;11.364;2023-04-03T07:53:50;11.50;99.90
53599;DHT22;39485;45.702;11.364;2023-04-03T07:56:16;11.50;99.90
53599;DHT22;39485;45.702;11.364;2023-04-03T07:58:42;11.60;99.90
53599;DHT22;39485;45.702;11.364;2023-04-03T08:01:08;11.70;99.90
53599;DHT22;39485;45.702;11.364;2023-04-03T08:03:33;11.80;99.90
53599;DHT22;39485;45.702;11.364;2023-04-03T08:06:07;11.90;99.90
53599;DHT22;39485;45.702;11.364;2023-04-03T08:08:33;12.00;99.90
53599;DHT22;39485;45.702;11.364;2023-04-03T08:11:01;12.10;99.90
53599;DHT22;39485;45.702;11.364;2023-04-03T08:13:28;12.20;99.90
53599;DHT22;39485;45.702;11.364;2023-04-03T08:15:54;12.20;99.90
53599;DHT22;39485;45.702;11.364;2023-04-03T08:18:22;12.20;99.90
53599;DHT22;39485;45.702;11.364;2023-04-03T08:20:50;12.20;99.90
53599;DHT22;39485;45.702;11.364;2023-04-03T08:23:17;12.20;99.90
53599;DHT22;39485;45.702;11.364;2023-04-03T08:25:43;12.20;99.90
53599;DHT22;39485;45.702;11.364;2023-04-03T08:28:11;12.20;99.90
53599;DHT22;39485;45.702;11.364;2023-04-03T08:30:39;12.20;99.90
53599;DHT22;39485;45.702;11.364;2023-04-03T08:33:06;12.20;99.90
53599;DHT22;39485;45.702;11.364;2023-04-03T08:35:32;12.20;99.90
53599;DHT22;39485;45.702;11.364;2023-04-03T08:37:58;12.20;99.90
53599;DHT22;39485;45.702;11.364;2023-04-03T08:40:24;12.30;99.90
53599;DHT22;39485;45.702;11.364;2023-04-03T08:45:38;12.30;99.90
53599;DHT22;39485;45.702;11.364;2023-04-03T08:48:26;12.30;99.90
53599;DHT22;39485;45.702;11.364;2023-04-03T08:50:56;12.30;99.90
53599;DHT22;39485;45.702;11.364;2023-04-03T08:53:29;12.20;99.90
53599;DHT22;39485;45.702;11.364;2023-04-03T08:55:58;12.30;99.90
53599;DHT22;39485;45.702;11.364;2023-04-03T08:58:26;12.30;99.90
53599;DHT22;39485;45.702;11.364;2023-04-03T09:01:00;12.30;99.90
53599;DHT22;39485;45.702;11.364;2023-04-03T09:03:30;12.30;99.90
53599;DHT22;39485;45.702;11.364;2023-04-03T09:08:28;12.30;99.90
53599;DHT22;39485;45.702;11.364;2023-04-03T09:13:57;12.20;99.90
53599;DHT22;39485;45.702;11.364;2023-04-03T09:17:18;12.20;99.90
53599;DHT22;39485;45.702;11.364;2023-04-03T09:19:41;12.10;99.90
53599;DHT22;39485;45.702;11.364;2023-04-03T09:22:26;12.10;99.90
53599;DHT22;39485;45.702;11.364;2023-04-03T09:25:10;12.10;99.90
53599;DHT22;39485;45.702;11.364;2023-04-03T09:27:37;12.10;99.90
53599;DHT22;39485;45.702;11.364;2023-04-03T09:30:03;12.10;99.90
53599;DHT22;39485;45.702;11.364;2023-04-03T09:32:35;12.20;99.90
53599;DHT22;39485;45.702;11.364;2023-04-03T09:37:45;12.20;99.90
53599;DHT22;39485;45.702;11.364;2023-04-03T09:43:00;12.20;99.90
53599;DHT22;39485;45.702;11.364;2023-04-03T09:45:32;12.20;99.90
53599;DHT22;39485;45.702;11.364;2023-04-03T09:48:18;12.20;99.90
53599;DHT22;39485;45.702;11.364;2023-04-03T09:53:41;12.30;99.90
53599;DHT22;39485;45.702;11.364;2023-04-03T09:58:45;12.50;99.90
53599;DHT22;39485;45.702;11.364;2023-04-03T10:01:36;12.70;99.90
53599;DHT22;39485;45.702;11.364;2023-04-03T10:04:12;13.00;99.90
53599;DHT22;39485;45.702;11.364;2023-04-03T10:06:49;13.10;99.90
53599;DHT22;39485;45.702;11.364;2023-04-03T10:09:23;13.30;99.90
53599;DHT22;39485;45.702;11.364;2023-04-03T10:12:04;13.40;99.90
53599;DHT22;39485;45.702;11.364;2023-04-03T10:14:56;13.40;99.90
53599;DHT22;39485;45.702;11.364;2023-04-03T10:20:37;13.40;99.90
53599;DHT22;39485;45.702;11.364;2023-04-03T10:28:51;13.40;99.90
53599;DHT22;39485;45.702;11.364;2023-04-03T10:34:06;13.40;99.90
53599;DHT22;39485;45.702;11.364;2023-04-03T10:39:35;13.20;99.90
53599;DHT22;39485;45.702;11.364;2023-04-03T10:48:24;13.00;99.90
53599;DHT22;39485;45.702;11.364;2023-04-03T10:51:37;13.00;99.90
53599;DHT22;39485;45.702;11.364;2023-04-03T10:54:24;13.00;99.90
53599;DHT22;39485;45.702;11.364;2023-04-03T10:56:54;12.90;99.90
53599;DHT22;39485;45.702;11.364;2023-04-03T10:59:58;12.90;99.90
53599;DHT22;39485;45.702;11.364;2023-04-03T11:02:36;12.90;99.90
53599;DHT22;39485;45.702;11.364;2023-04-03T11:07:46;12.80;99.90
53599;DHT22;39485;45.702;11.364;2023-04-03T11:13:19;12.70;99.90
53599;DHT22;39485;45.702;11.364;2023-04-03T11:15:46;12.70;99.90
53599;DHT22;39485;45.702;11.364;2023-04-03T11:18:26;12.70;99.90
53599;DHT22;39485;45.702;11.364;2023-04-03T11:21:10;12.70;99.90
53599;DHT22;39485;45.702;11.364;2023-04-03T11:23:39;12.60;99.90
53599;DHT22;39485;45.702;11.364;2023-04-03T11:26:12;12.60;99.90
53599;DHT22;39485;45.702;11.364;2023-04-03T11:28:39;12.60;99.90
53599;DHT22;39485;45.702;11.364;2023-04-03T11:36:58;12.70;99.90
53599;DHT22;39485;45.702;11.364;2023-04-03T11:39:31;12.70;99.90
53599;DHT22;39485;45.702;11.364;2023-04-03T11:47:56;12.80;99.90
53599;DHT22;39485;45.702;11.364;2023-04-03T11:50:39;12.90;99.90
53599;DHT22;39485;45.702;11.364;2023-04-03T12:05:55;13.10;99.90
53599;DHT22;39485;45.702;11.364;2023-04-03T12:14:03;13.30;99.90
53599;DHT22;39485;45.702;11.364;2023-04-03T12:19:00;13.30;99.90
53599;DHT22;39485;45.702;11.364;2023-04-03T12:29:41;13.70;99.90
53599;DHT22;39485;45.702;11.364;2023-04-03T12:59:40;15.10;96.70
53599;DHT22;39485;45.702;11.364;2023-04-03T13:02:26;15.00;96.00
53599;DHT22;39485;45.702;11.364;2023-04-03T13:04:55;15.00;96.30
53599;DHT22;39485;45.702;11.364;2023-04-03T13:07:32;15.00;96.10
53599;DHT22;39485;45.702;11.364;2023-04-03T13:12:34;14.80;94.70
53599;DHT22;39485;45.702;11.364;2023-04-03T13:15:11;14.80;94.90
53599;DHT22;39485;45.702;11.364;2023-04-03T13:17:39;14.70;94.90
53599;DHT22;39485;45.702;11.364;2023-04-03T13:20:34;14.60;94.70
53599;DHT22;39485;45.702;11.364;2023-04-03T13:23:08;14.50;94.80
53599;DHT22;39485;45.702;11.364;2023-04-03T13:25:41;14.40;94.30
53599;DHT22;39485;45.702;11.364;2023-04-03T13:28:13;14.20;94.50
53599;DHT22;39485;45.702;11.364;2023-04-03T13:30:40;14.20;94.90
53599;DHT22;39485;45.702;11.364;2023-04-03T13:33:23;14.20;94.80
53599;DHT22;39485;45.702;11.364;2023-04-03T13:36:06;14.10;94.30
53599;DHT22;39485;45.702;11.364;2023-04-03T13:38:33;14.10;94.70
53599;DHT22;39485;45.702;11.364;2023-04-03T13:41:20;14.10;95.00
53599;DHT22;39485;45.702;11.364;2023-04-03T13:43:46;14.00;95.00
53599;DHT22;39485;45.702;11.364;2023-04-03T13:48:41;14.00;94.70
53599;DHT22;39485;45.702;11.364;2023-04-03T13:53:52;14.00;94.70
53599;DHT22;39485;45.702;11.364;2023-04-03T14:01:44;13.80;93.30
53599;DHT22;39485;45.702;11.364;2023-04-03T14:06:41;13.60;93.50
53599;DHT22;39485;45.702;11.364;2023-04-03T14:09:07;13.50;93.60
53599;DHT22;39485;45.702;11.364;2023-04-03T14:11:34;13.50;93.70
53599;DHT22;39485;45.702;11.364;2023-04-03T14:14:12;13.40;94.10
53599;DHT22;39485;45.702;11.364;2023-04-03T14:16:41;13.40;94.10
53599;DHT22;39485;45.702;11.364;2023-04-03T14:19:09;13.30;94.10
53599;DHT22;39485;45.702;11.364;2023-04-03T14:21:40;13.30;94.20
53599;DHT22;39485;45.702;11.364;2023-04-03T14:24:06;13.30;94.20
53599;DHT22;39485;45.702;11.364;2023-04-03T14:26:32;13.30;94.10
53599;DHT22;39485;45.702;11.364;2023-04-03T14:28:57;13.20;94.20
53599;DHT22;39485;45.702;11.364;2023-04-03T14:31:23;13.20;94.30
53599;DHT22;39485;45.702;11.364;2023-04-03T14:33:49;13.30;94.50
53599;DHT22;39485;45.702;11.364;2023-04-03T14:36:24;13.30;94.60
53599;DHT22;39485;45.702;11.364;2023-04-03T14:38:52;13.30;94.60
53599;DHT22;39485;45.702;11.364;2023-04-03T14:41:20;13.30;94.20
53599;DHT22;39485;45.702;11.364;2023-04-03T14:43:46;13.30;94.10
53599;DHT22;39485;45.702;11.364;2023-04-03T14:46:24;13.40;94.00
53599;DHT22;39485;45.702;11.364;2023-04-03T14:48:51;13.40;93.70
53599;DHT22;39485;45.702;11.364;2023-04-03T14:51:17;13.40;93.60
53599;DHT22;39485;45.702;11.364;2023-04-03T14:53:44;13.40;93.40
53599;DHT22;39485;45.702;11.364;2023-04-03T14:56:19;13.40;93.30
53599;DHT22;39485;45.702;11.364;2023-04-03T14:58:48;13.40;92.90
53599;DHT22;39485;45.702;11.364;2023-04-03T15:01:17;13.40;92.90
53599;DHT22;39485;45.702;11.364;2023-04-03T15:03:42;13.50;92.80
53599;DHT22;39485;45.702;11.364;2023-04-03T15:06:12;13.60;92.90
53599;DHT22;39485;45.702;11.364;2023-04-03T15:08:39;13.60;92.50
53599;DHT22;39485;45.702;11.364;2023-04-03T15:11:08;13.60;92.30
53599;DHT22;39485;45.702;11.364;2023-04-03T15:13:33;13.70;92.30
53599;DHT22;39485;45.702;11.364;2023-04-03T15:15:59;13.70;91.70
53599;DHT22;39485;45.702;11.364;2023-04-03T15:18:27;13.70;91.40
53599;DHT22;39485;45.702;11.364;2023-04-03T15:20:53;13.70;91.50
53599;DHT22;39485;45.702;11.364;2023-04-03T15:23:20;13.70;91.20
53599;DHT22;39485;45.702;11.364;2023-04-03T15:25:51;13.70;91.10
53599;DHT22;39485;45.702;11.364;2023-04-03T15:28:30;13.70;90.90
53599;DHT22;39485;45.702;11.364;2023-04-03T15:30:57;13.60;91.10
53599;DHT22;39485;45.702;11.364;2023-04-03T15:33:24;13.60;91.10
53599;DHT22;39485;45.702;11.364;2023-04-03T15:35:50;13.60;91.10
53599;DHT22;39485;45.702;11.364;2023-04-03T15:38:16;13.50;91.10
53599;DHT22;39485;45.702;11.364;2023-04-03T15:40:42;13.50;90.90
53599;DHT22;39485;45.702;11.364;2023-04-03T15:43:12;13.50;90.90
53599;DHT22;39485;45.702;11.364;2023-04-03T15:45:38;13.40;91.00
53599;DHT22;39485;45.702;11.364;2023-04-03T15:48:05;13.40;91.10
53599;DHT22;39485;45.702;11.364;2023-04-03T15:50:33;13.40;91.40
53599;DHT22;39485;45.702;11.364;2023-04-03T15:52:59;13.40;91.20
53599;DHT22;39485;45.702;11.364;2023-04-03T15:55:28;13.30;91.20
53599;DHT22;39485;45.702;11.364;2023-04-03T15:57:54;13.30;91.30
53599;DHT22;39485;45.702;11.364;2023-04-03T16:00:21;13.30;91.30
53599;DHT22;39485;45.702;11.364;2023-04-03T16:02:49;13.30;91.50
53599;DHT22;39485;45.702;11.364;2023-04-03T16:05:16;13.30;91.70
53599;DHT22;39485;45.702;11.364;2023-04-03T16:07:43;13.30;91.70
53599;DHT22;39485;45.702;11.364;2023-04-03T16:10:10;13.40;91.90
53599;DHT22;39485;45.702;11.364;2023-04-03T16:12:36;13.40;92.00
53599;DHT22;39485;45.702;11.364;2023-04-03T16:15:03;13.40;92.00
53599;DHT22;39485;45.702;11.364;2023-04-03T16:17:29;13.40;92.00
53599;DHT22;39485;45.702;11.364;2023-04-03T16:19:59;13.30;91.80
53599;DHT22;39485;45.702;11.364;2023-04-03T16:22:26;13.10;91.10
53599;DHT22;39485;45.702;11.364;2023-04-03T16:24:53;13.00;90.30
53599;DHT22;39485;45.702;11.364;2023-04-03T16:27:20;12.90;90.20
53599;DHT22;39485;45.702;11.364;2023-04-03T16:29:46;12.70;89.60
53599;DHT22;39485;45.702;11.364;2023-04-03T16:32:12;12.60;89.20
53599;DHT22;39485;45.702;11.364;2023-04-03T16:34:38;12.50;88.70
53599;DHT22;39485;45.702;11.364;2023-04-03T16:37:06;12.40;88.20
53599;DHT22;39485;45.702;11.364;2023-04-03T16:39:34;12.20;87.90
53599;DHT22;39485;45.702;11.364;2023-04-03T16:42:00;12.10;87.20
53599;DHT22;39485;45.702;11.364;2023-04-03T16:44:26;12.10;87.50
53599;DHT22;39485;45.702;11.364;2023-04-03T16:46:51;12.00;87.20
53599;DHT22;39485;45.702;11.364;2023-04-03T16:49:17;11.90;87.10
53599;DHT22;39485;45.702;11.364;2023-04-03T16:51:43;11.90;86.80
53599;DHT22;39485;45.702;11.364;2023-04-03T16:54:09;11.80;86.00
53599;DHT22;39485;45.702;11.364;2023-04-03T16:56:36;11.80;86.50
53599;DHT22;39485;45.702;11.364;2023-04-03T16:59:02;11.70;86.70
53599;DHT22;39485;45.702;11.364;2023-04-03T17:01:28;11.70;86.60
53599;DHT22;39485;45.702;11.364;2023-04-03T17:03:54;11.70;86.00
53599;DHT22;39485;45.702;11.364;2023-04-03T17:06:21;11.60;86.10
53599;DHT22;39485;45.702;11.364;2023-04-03T17:08:50;11.60;86.50
53599;DHT22;39485;45.702;11.364;2023-04-03T17:11:16;11.50;86.80
53599;DHT22;39485;45.702;11.364;2023-04-03T17:13:42;11.60;86.70
53599;DHT22;39485;45.702;11.364;2023-04-03T17:16:11;11.50;87.00
53599;DHT22;39485;45.702;11.364;2023-04-03T17:18:38;11.50;87.00
53599;DHT22;39485;45.702;11.364;2023-04-03T17:21:04;11.50;87.00
53599;DHT22;39485;45.702;11.364;2023-04-03T17:23:30;11.40;87.00
53599;DHT22;39485;45.702;11.364;2023-04-03T17:25:59;11.40;87.10
53599;DHT22;39485;45.702;11.364;2023-04-03T17:28:24;11.40;87.20
53599;DHT22;39485;45.702;11.364;2023-04-03T17:30:57;11.40;87.40
53599;DHT22;39485;45.702;11.364;2023-04-03T17:33:23;11.40;87.10
53599;DHT22;39485;45.702;11.364;2023-04-03T17:35:49;11.30;87.20
53599;DHT22;39485;45.702;11.364;2023-04-03T17:38:15;11.30;87.50
53599;DHT22;39485;45.702;11.364;2023-04-03T17:40:41;11.20;87.30
53599;DHT22;39485;45.702;11.364;2023-04-03T17:43:09;11.20;88.00
53599;DHT22;39485;45.702;11.364;2023-04-03T17:45:35;11.20;89.30
53599;DHT22;39485;45.702;11.364;2023-04-03T17:48:01;11.10;90.30
53599;DHT22;39485;45.702;11.364;2023-04-03T17:50:27;11.10;90.80
53599;DHT22;39485;45.702;11.364;2023-04-03T17:52:53;11.00;91.40
53599;DHT22;39485;45.702;11.364;2023-04-03T17:55:18;10.90;92.00